createdAt,value
2023-07-12T04:41:08.908Z,2.22
2023-07-12T04:43:37.956Z,1.52
2023-07-12T04:46:06.275Z,1.80
2023-07-12T04:48:35.543Z,1.27
2023-07-12T04:51:05.425Z,1.55
2023-07-12T04:53:35.087Z,1.58
2023-07-12T04:56:03.829Z,1.63
2023-07-12T04:58:34.599Z,1.70
2023-07-12T05:01:03.724Z,2.00
2023-07-12T05:03:32.576Z,1.98
2023-07-12T05:06:13.638Z,2.42
2023-07-12T05:08:49.724Z,2.08
2023-07-12T05:11:18.771Z,1.90
2023-07-12T05:13:48.553Z,1.90
2023-07-12T05:16:17.067Z,2.10
2023-07-12T05:18:45.531Z,1.88
2023-07-12T05:21:14.110Z,2.10
2023-07-12T05:23:43.349Z,2.22
2023-07-12T05:26:12.052Z,2.08
2023-07-12T05:28:40.582Z,1.98
2023-07-12T05:31:11.729Z,2.30
2023-07-12T05:33:43.529Z,1.98
2023-07-12T05:36:12.482Z,2.22
2023-07-12T05:38:40.847Z,2.25
2023-07-12T05:41:09.604Z,2.40
2023-07-12T05:43:41.121Z,1.70
2023-07-12T05:46:10.865Z,1.98
2023-07-12T05:48:39.573Z,2.10
2023-07-12T05:51:09.886Z,1.63
2023-07-12T05:53:38.828Z,1.77
2023-07-12T05:56:08.129Z,1.73
2023-07-12T05:58:37.061Z,1.45
2023-07-12T06:01:06.829Z,1.83
2023-07-12T06:03:38.699Z,1.92
2023-07-12T06:06:15.848Z,2.25
2023-07-12T06:08:47.166Z,1.70
2023-07-12T06:11:20.020Z,2.10
2023-07-12T06:13:49.864Z,1.88
2023-07-12T06:16:19.703Z,2.13
2023-07-12T06:18:55.475Z,2.08
2023-07-12T06:21:26.956Z,2.00
2023-07-12T06:23:58.582Z,2.30
2023-07-12T06:26:26.953Z,2.30
2023-07-12T06:28:55.605Z,2.60
2023-07-12T06:31:24.499Z,2.20
2023-07-12T06:33:54.245Z,3.30
2023-07-12T06:36:22.591Z,2.30
2023-07-12T06:38:51.023Z,2.42
2023-07-12T06:41:19.350Z,2.45
2023-07-12T06:43:47.772Z,2.60
2023-07-12T06:46:17.419Z,3.05
2023-07-12T06:48:46.423Z,4.05
2023-07-12T06:51:16.286Z,2.33
2023-07-12T06:53:44.868Z,2.83
2023-07-12T06:56:13.140Z,3.25
2023-07-12T06:58:41.602Z,4.22
2023-07-12T07:01:11.348Z,3.10
2023-07-12T07:03:40.148Z,3.60
2023-07-12T07:06:08.465Z,3.85
2023-07-12T07:08:38.305Z,3.60
2023-07-12T07:11:07.004Z,3.17
2023-07-12T07:13:35.694Z,3.30
2023-07-12T07:16:05.033Z,3.33
2023-07-12T07:18:36.253Z,3.85
2023-07-12T07:21:05.756Z,3.80
2023-07-12T07:23:35.037Z,4.53
2023-07-12T07:26:07.059Z,4.00
2023-07-12T07:28:37.373Z,4.07
2023-07-12T07:31:05.878Z,4.47
2023-07-12T07:33:34.336Z,4.10
2023-07-12T07:36:02.632Z,3.97
2023-07-12T07:38:31.367Z,3.70
2023-07-12T07:40:59.880Z,4.25
2023-07-12T07:43:29.566Z,3.13
2023-07-12T07:45:57.973Z,3.38
2023-07-12T07:48:26.436Z,3.38
2023-07-12T07:50:55.793Z,4.03
2023-07-12T07:53:24.436Z,3.50
2023-07-12T07:55:52.845Z,3.55
2023-07-12T07:58:22.642Z,3.17
2023-07-12T08:00:53.478Z,4.20
2023-07-12T08:03:22.278Z,4.25
2023-07-12T08:05:51.052Z,3.30
2023-07-12T08:08:21.564Z,2.50
2023-07-12T08:10:49.880Z,2.88
2023-07-12T08:13:18.597Z,2.78
2023-07-12T08:15:47.066Z,3.25
2023-07-12T08:18:17.353Z,3.28
2023-07-12T08:20:45.784Z,3.22
2023-07-12T08:23:14.700Z,3.67
2023-07-12T08:25:43.113Z,3.15
2023-07-12T08:28:11.520Z,3.13
2023-07-12T08:30:39.924Z,3.03
2023-07-12T08:33:08.276Z,4.07
2023-07-12T08:35:48.273Z,3.03
2023-07-12T08:38:18.473Z,3.40
2023-07-12T08:40:49.798Z,4.00
2023-07-12T08:43:22.368Z,4.53
2023-07-12T08:45:53.495Z,3.88
2023-07-12T08:48:24.490Z,3.60
2023-07-12T08:50:54.480Z,4.90
2023-07-12T08:53:27.406Z,3.83
2023-07-12T08:55:56.956Z,3.10
2023-07-12T08:58:27.814Z,2.90
2023-07-12T09:01:04.172Z,3.22
2023-07-12T09:03:32.654Z,3.20
2023-07-12T09:06:02.815Z,3.28
2023-07-12T09:08:35.460Z,4.13
2023-07-12T09:11:04.125Z,3.20
2023-07-12T09:13:37.089Z,3.50
2023-07-12T09:16:06.818Z,3.10
2023-07-12T09:18:38.189Z,2.85
2023-07-12T09:21:16.876Z,3.30
2023-07-12T09:23:47.606Z,3.22
2023-07-12T09:26:24.814Z,3.30
2023-07-12T09:28:54.744Z,3.22
2023-07-12T09:31:25.105Z,3.78
2023-07-12T09:33:55.913Z,3.38
2023-07-12T09:36:25.767Z,3.22
2023-07-12T09:38:54.178Z,3.38
2023-07-12T09:41:25.725Z,3.78
2023-07-12T09:43:57.249Z,3.67
2023-07-12T09:46:33.537Z,4.30
2023-07-12T09:49:06.251Z,2.85
2023-07-12T09:51:44.039Z,3.22
2023-07-12T09:54:23.324Z,2.35
2023-07-12T09:56:56.169Z,2.50
2023-07-12T09:59:32.255Z,2.63
2023-07-12T10:02:10.978Z,2.45
2023-07-12T10:04:42.429Z,2.80
2023-07-12T10:07:17.991Z,2.67
2023-07-12T10:09:49.280Z,2.40
2023-07-12T10:12:25.188Z,2.67
2023-07-12T10:14:55.270Z,2.95
2023-07-12T10:17:31.050Z,2.22
2023-07-12T10:19:59.554Z,1.90
2023-07-12T10:22:34.253Z,1.83
2023-07-12T10:25:05.914Z,1.98
2023-07-12T10:27:37.544Z,2.45
2023-07-12T10:30:11.577Z,2.33
2023-07-12T10:32:44.237Z,2.45
2023-07-12T10:35:19.423Z,4.00
2023-07-12T10:37:53.361Z,2.80
2023-07-12T10:40:26.166Z,2.28
2023-07-12T10:42:57.158Z,2.50
2023-07-12T10:45:28.175Z,2.50
2023-07-12T10:47:57.245Z,2.05
2023-07-12T10:50:29.930Z,2.40
2023-07-12T10:53:03.865Z,3.25
2023-07-12T10:55:44.175Z,3.08
2023-07-12T10:58:25.886Z,2.45
2023-07-12T11:00:56.398Z,2.92
2023-07-12T11:03:35.488Z,3.00
2023-07-12T11:06:09.125Z,2.70
2023-07-12T11:08:41.369Z,2.90
2023-07-12T11:11:43.537Z,3.03
2023-07-12T11:14:27.855Z,3.00
2023-07-12T11:17:16.103Z,3.53
2023-07-12T11:19:53.192Z,3.00
2023-07-12T11:22:22.883Z,4.15
2023-07-12T11:25:01.888Z,4.15
2023-07-12T11:27:55.656Z,4.63
2023-07-12T11:30:28.176Z,5.03
2023-07-12T11:33:00.546Z,4.20
2023-07-12T11:35:44.552Z,4.65
2023-07-12T11:38:17.363Z,4.05
2023-07-12T11:40:49.008Z,3.88
2023-07-12T11:43:35.761Z,3.92
2023-07-12T11:46:07.072Z,3.95
2023-07-12T11:48:36.422Z,3.92
2023-07-12T11:51:10.453Z,4.82
2023-07-12T11:53:40.443Z,5.88
2023-07-12T11:56:16.788Z,5.93
2023-07-12T11:58:46.480Z,5.70
2023-07-12T12:01:18.976Z,4.72
2023-07-12T12:03:50.684Z,3.88
2023-07-12T12:06:20.158Z,4.60
2023-07-12T12:08:52.125Z,4.10
2023-07-12T12:11:22.538Z,3.90
2023-07-12T12:13:54.009Z,3.67
2023-07-12T12:16:25.132Z,4.15
2023-07-12T12:18:59.247Z,3.65
2023-07-12T12:21:29.166Z,4.47
2023-07-12T12:23:59.183Z,4.28
2023-07-12T12:26:31.642Z,3.95
2023-07-12T12:29:02.681Z,4.18
2023-07-12T12:31:32.893Z,3.88
2023-07-12T12:34:06.209Z,3.65
2023-07-12T12:36:35.833Z,3.42
2023-07-12T12:39:07.460Z,2.78
2023-07-12T12:41:40.186Z,2.50
2023-07-12T12:44:12.016Z,2.53
2023-07-12T12:58:08.896Z,2.58
2023-07-12T13:02:28.142Z,2.80
2023-07-12T13:08:44.621Z,2.60
2023-07-12T13:17:00.995Z,2.45
2023-07-12T13:19:02.533Z,2.03
2023-07-12T13:21:18.962Z,1.80
2023-07-12T13:23:48.195Z,1.40
2023-07-12T13:26:18.527Z,1.67
2023-07-12T13:28:48.941Z,2.03
2023-07-12T13:31:21.348Z,2.13
2023-07-12T13:36:28.908Z,1.90
2023-07-12T13:46:36.684Z,1.90
2023-07-12T13:49:05.300Z,1.73
2023-07-12T13:51:33.791Z,1.95
2023-07-12T13:54:02.293Z,2.40
2023-07-12T13:56:46.443Z,2.13
2023-07-12T13:59:19.083Z,2.20
2023-07-12T14:03:05.403Z,1.90
2023-07-12T14:04:50.540Z,2.00
2023-07-12T14:10:13.378Z,2.00
2023-07-12T14:12:42.593Z,1.90
2023-07-12T14:15:17.534Z,1.95
2023-07-12T14:17:46.167Z,1.73
2023-07-12T14:20:14.602Z,2.17
2023-07-12T14:22:43.496Z,1.90
2023-07-12T14:25:17.865Z,2.40
2023-07-12T14:27:46.315Z,4.05
2023-07-12T14:32:50.397Z,1.77
2023-07-12T14:35:22.185Z,2.13
2023-07-12T14:37:51.384Z,2.25
2023-07-12T14:40:21.153Z,2.03
2023-07-12T14:42:49.900Z,2.05
2023-07-12T14:45:21.969Z,1.70
2023-07-12T14:47:50.811Z,2.00
2023-07-12T14:50:21.822Z,1.85
2023-07-12T14:52:50.409Z,1.83
2023-07-12T14:55:20.087Z,2.00
2023-07-12T15:00:22.394Z,1.60
2023-07-12T15:02:54.654Z,2.03
2023-07-12T15:05:23.446Z,1.97
2023-07-12T15:07:52.601Z,1.95
2023-07-12T15:10:22.124Z,2.03
2023-07-12T15:12:52.395Z,2.40
2023-07-12T15:15:24.273Z,1.80
2023-07-12T15:18:00.218Z,1.70
2023-07-12T15:20:28.969Z,1.58
2023-07-12T15:22:59.031Z,1.42
2023-07-12T15:25:29.292Z,1.73
2023-07-12T15:27:58.709Z,1.90
2023-07-12T15:30:30.191Z,1.73
2023-07-12T15:33:00.017Z,2.05
2023-07-12T15:35:31.247Z,1.58
2023-07-12T15:38:01.608Z,1.90
2023-07-12T15:40:52.505Z,1.95
2023-07-12T15:43:22.327Z,1.58
2023-07-12T15:45:53.045Z,1.83
2023-07-12T15:48:24.333Z,1.70
2023-07-12T15:50:55.679Z,1.92
2023-07-12T15:53:25.342Z,1.98
2023-07-12T15:55:54.009Z,2.70
2023-07-12T15:58:30.859Z,2.08
2023-07-12T16:01:02.122Z,1.83
2023-07-12T16:03:33.013Z,2.22
2023-07-12T16:06:02.496Z,2.53
2023-07-12T16:08:34.673Z,2.72
2023-07-12T16:11:06.528Z,2.28
2023-07-12T16:13:36.094Z,1.98
2023-07-12T16:16:07.942Z,2.05
2023-07-12T16:18:36.697Z,3.08
2023-07-12T16:21:06.933Z,2.10
2023-07-12T16:23:36.950Z,1.92
2023-07-12T16:26:07.674Z,2.10
2023-07-12T16:28:37.895Z,2.22
2023-07-12T16:31:29.666Z,1.90
2023-07-12T16:33:59.894Z,2.30
2023-07-12T16:36:28.850Z,2.30
2023-07-12T16:38:57.609Z,1.85
2023-07-12T16:41:28.330Z,2.15
2023-07-12T16:43:57.828Z,2.60
2023-07-12T16:46:30.804Z,2.47
2023-07-12T16:48:59.640Z,2.30
2023-07-12T16:51:30.285Z,2.10
2023-07-12T16:53:59.023Z,1.98
2023-07-12T16:56:29.051Z,2.00
2023-07-12T16:58:57.711Z,1.92
2023-07-12T17:01:29.841Z,2.55
2023-07-12T17:03:59.856Z,2.03
2023-07-12T17:06:29.790Z,1.90
2023-07-12T17:08:58.217Z,2.33
2023-07-12T17:11:29.205Z,2.80
2023-07-12T17:13:57.926Z,1.80
2023-07-12T17:16:29.583Z,2.03
2023-07-12T17:18:59.746Z,2.10
2023-07-12T17:21:28.268Z,1.70
2023-07-12T17:23:56.841Z,2.20
2023-07-12T17:26:25.244Z,2.20
2023-07-12T17:28:54.310Z,2.17
2023-07-12T17:31:25.742Z,2.80
2023-07-12T17:33:55.512Z,2.50
2023-07-12T17:36:25.226Z,2.05
2023-07-12T17:38:57.174Z,2.63
2023-07-12T17:41:27.868Z,3.00
2023-07-12T17:43:56.651Z,2.08
2023-07-12T17:46:25.746Z,2.17
2023-07-12T17:48:55.592Z,2.50
2023-07-12T17:51:26.106Z,2.67
2023-07-12T17:53:56.674Z,2.78
2023-07-12T17:56:25.480Z,2.30
2023-07-12T17:58:54.456Z,2.78
2023-07-12T18:01:24.294Z,3.00
2023-07-12T18:03:53.683Z,3.03
2023-07-12T18:06:26.784Z,2.80
2023-07-12T18:08:55.860Z,2.72
2023-07-12T18:11:28.344Z,2.63
2023-07-12T18:13:57.508Z,2.30
2023-07-12T18:16:26.448Z,2.33
2023-07-12T18:18:55.012Z,2.78
2023-07-12T18:21:27.282Z,2.88
2023-07-12T18:23:56.320Z,2.03
2023-07-12T18:26:25.948Z,2.15
2023-07-12T18:28:55.350Z,1.38
2023-07-12T18:31:26.697Z,1.63
2023-07-12T18:33:55.574Z,2.15
2023-07-12T18:36:26.517Z,3.90
2023-07-12T18:38:57.454Z,1.70
2023-07-12T18:41:27.480Z,1.63
2023-07-12T18:43:56.332Z,2.30
2023-07-12T18:46:25.601Z,2.08
2023-07-12T18:48:54.414Z,1.90
2023-07-12T18:51:26.650Z,1.80
2023-07-12T18:53:55.351Z,2.20
2023-07-12T18:56:26.415Z,2.38
2023-07-12T18:58:55.384Z,2.00
2023-07-12T19:01:25.545Z,2.25
2023-07-12T19:03:54.120Z,1.83
2023-07-12T19:06:25.176Z,1.58
2023-07-12T19:08:55.910Z,1.58
2023-07-12T19:11:27.424Z,1.77
2023-07-12T19:13:55.824Z,1.70
2023-07-12T19:16:24.927Z,6.57
2023-07-12T19:18:53.705Z,2.78
2023-07-12T19:21:27.367Z,3.63
2023-07-12T19:23:58.706Z,2.65
2023-07-12T19:26:28.497Z,2.17
2023-07-12T19:28:57.067Z,2.50
2023-07-12T19:31:27.638Z,1.80
2023-07-12T19:33:57.279Z,2.00
2023-07-12T19:36:26.762Z,2.10
2023-07-12T19:38:57.204Z,2.13
2023-07-12T19:41:28.946Z,2.10
2023-07-12T19:43:57.631Z,1.73
2023-07-12T19:46:26.120Z,2.08
2023-07-12T19:48:54.553Z,2.13
2023-07-12T19:51:26.971Z,2.38
2023-07-12T19:53:58.905Z,2.20
2023-07-12T19:56:27.882Z,2.65
2023-07-12T19:58:58.432Z,2.03
2023-07-12T20:01:28.635Z,2.42
2023-07-12T20:03:58.901Z,2.30
2023-07-12T20:06:28.103Z,2.50
2023-07-12T20:08:58.763Z,2.33
2023-07-12T20:11:27.990Z,2.08
2023-07-12T20:13:57.698Z,1.88
2023-07-12T20:16:28.778Z,2.65
2023-07-12T20:18:58.570Z,1.88
2023-07-12T20:21:27.090Z,2.20
2023-07-12T20:23:55.596Z,2.65
2023-07-12T20:26:25.332Z,2.70
2023-07-12T20:28:53.799Z,3.22
2023-07-12T20:31:22.514Z,2.47
2023-07-12T20:33:51.016Z,3.13
2023-07-12T20:36:19.441Z,2.63
2023-07-12T20:38:47.906Z,2.20
2023-07-12T20:41:17.111Z,2.63
2023-07-12T20:43:46.878Z,2.50
2023-07-12T20:46:15.968Z,2.90
2023-07-12T20:48:45.029Z,2.42
2023-07-12T20:51:15.025Z,2.35
2023-07-12T20:53:45.552Z,3.05
2023-07-12T20:56:15.970Z,2.65
2023-07-12T20:58:44.709Z,2.45
2023-07-12T21:01:16.155Z,3.53
